Stow, Ohio
Current Conditions -  °F | °C
As of 7:54 PM on Saturday 22 Nov 2014 (Local Time) from KAKR Reporting Station
Overcast Overcast  
Wind Chill: 40°   Ceiling: 4200
Heat Index: 47°   Visibility: 10mi
Dew Point: 32°   Wind: 16mph
Humidity: 56%   Direction: 200°SSW
Pressure: 30.05"   Gusts: NA
Location:  41.17°N, 81.44°W
Report Text: KAKR 230054Z AUTO 20014KT 10SM OVC042 08/00 A3005 RMK AO2 SLP184 T00830000
Loading
Personal Weather Stations






























Interactive Weather Map New forecast layout! Learn more

10-Day Weather Forecast

Advertisements
Track Severe Weather on mobile